This is the latest recevied weather packets stored in our database for station/object SR9SMR. If no packets are shown the sender has not sent any weather packets the latest 1 day(s).
| Time | Temp. | Humidity | Pressure | Rain* | Wind** | Luminosity | Snow |
|---|---|---|---|---|---|---|---|
| 1778001128 | 16.67° C | 100% | 894.6 hPa | - | 6.71 m/s, 220° | - | - |
| 1778001004 | 16.67° C | 100% | 894.2 hPa | - | 7.6 m/s, 207° | - | - |
| 1778000880 | 16.67° C | 100% | 894.2 hPa | - | 7.6 m/s, 200° | - | - |
| 1778000821 | 16.67° C | 100% | 894.5 hPa | - | 6.26 m/s, 206° | - | - |
| 1778000760 | 17.22° C | 100% | 894.5 hPa | - | 6.26 m/s, 215° | - | - |
| 1778000640 | 17.22° C | 100% | 894.5 hPa | - | 6.71 m/s, 221° | - | - |
| 1778000519 | 17.22° C | 100% | 894.5 hPa | - | 7.15 m/s, 219° | - | - |
| 1778000397 | 17.22° C | 100% | 894.6 hPa | - | 7.15 m/s, 214° | - | - |
| 1778000276 | 17.22° C | 100% | 894.8 hPa | - | 7.15 m/s, 217° | - | - |
| 1778000227 | 17.22° C | 100% | 894.5 hPa | - | 7.15 m/s, 216° | - | - |
| 1778000094 | 17.22° C | 100% | 894.7 hPa | - | 6.26 m/s, 224° | - | - |
| 1778000022 | 17.78° C | 100% | 894.7 hPa | - | 6.71 m/s, 230° | - | - |
| 1777999896 | 17.22° C | 100% | 894.7 hPa | - | 8.05 m/s, 231° | - | - |
| 1777999773 | 17.22° C | 100% | 894.7 hPa | - | 7.6 m/s, 222° | - | - |
| 1777999649 | 17.78° C | 100% | 894.8 hPa | - | 7.15 m/s, 208° | - | - |
| 1777999525 | 17.78° C | 100% | 894.6 hPa | - | 8.49 m/s, 222° | - | - |
| 1777999464 | 17.78° C | 100% | 894.6 hPa | - | 8.49 m/s, 236° | - | - |
| 1777999401 | 17.78° C | 100% | 894.7 hPa | - | 8.49 m/s, 233° | - | - |
| 1777999275 | 17.78° C | 100% | 894.6 hPa | - | 9.39 m/s, 233° | - | - |
| 1777999154 | 17.78° C | 100% | 894.4 hPa | - | 8.94 m/s, 234° | - | - |
| 1777999033 | 17.78° C | 100% | 894.5 hPa | - | 7.6 m/s, 233° | - | - |
| 1777998911 | 17.78° C | 100% | 894.9 hPa | - | 7.6 m/s, 238° | - | - |
| 1777998852 | 17.78° C | 100% | 894.9 hPa | - | 8.05 m/s, 245° | - | - |
| 1777998788 | 17.78° C | 100% | 894.7 hPa | - | 8.05 m/s, 244° | - | - |
| 1777998666 | 17.78° C | 100% | 894.3 hPa | - | 9.39 m/s, 238° | - | - |
* Rain since midnight (hover to see other rain measurements)
** Current wind speed in m/s (hover to see current wind gust speed)